Time,TemperatureF,DewpointF,PressureIn,WindDirection,WindDirectionDegrees,WindSpeedMPH,WindSpeedGustMPH,Humidity,HourlyPrecipIn,Conditions,Clouds,dailyrainin,SoftwareType,DateUTC
2013-10-12 00:01:00,59.4,54.9,27.49,ENE,66,0.0,3.6,85,0.00,,---,0.00,VWS V14.01,2013-10-12 04:01:00,
2013-10-12 00:06:00,59.7,54.9,27.49,SE,132,3.6,3.6,84,0.00,,---,0.00,VWS V14.01,2013-10-12 04:06:00,
2013-10-12 00:11:00,59.5,54.7,27.49,SE,132,2.7,3.1,84,0.00,,---,0.00,VWS V14.01,2013-10-12 04:11:00,
2013-10-12 00:16:00,59.4,54.5,27.46,SE,132,2.2,2.2,84,0.00,,---,0.00,VWS V14.01,2013-10-12 04:16:00,
2013-10-12 00:21:00,59.4,54.5,27.46,SE,125,2.7,2.7,84,0.00,,---,0.00,VWS V14.01,2013-10-12 04:21:00,
2013-10-12 00:26:00,59.4,54.5,27.46,SE,125,0.0,0.0,84,0.00,,---,0.00,VWS V14.01,2013-10-12 04:26:00,
2013-10-12 00:31:00,59.2,54.7,27.46,SE,125,0.0,0.0,85,0.00,,---,0.00,VWS V14.01,2013-10-12 04:31:00,
2013-10-12 00:36:00,59.2,54.7,27.46,SE,125,2.7,4.0,85,0.00,,---,0.00,VWS V14.01,2013-10-12 04:36:00,
2013-10-12 00:41:00,59.2,54.7,27.46,SSW,200,0.0,2.7,85,0.00,,---,0.00,VWS V14.01,2013-10-12 04:41:00,
2013-10-12 00:46:00,59.2,55.0,27.46,SSE,165,2.7,5.4,86,0.00,,---,0.00,VWS V14.01,2013-10-12 04:46:00,
2013-10-12 00:51:00,59.0,54.8,27.46,ENE,63,2.2,2.2,86,0.00,,---,0.00,VWS V14.01,2013-10-12 04:51:00,
2013-10-12 00:56:00,58.8,55.0,27.46,ENE,63,2.7,3.1,87,0.00,,---,0.00,VWS V14.01,2013-10-12 04:56:00,
2013-10-12 01:01:00,58.8,55.0,27.46,ESE,116,0.0,0.0,87,0.00,,---,0.00,VWS V14.01,2013-10-12 05:01:00,
2013-10-12 01:06:00,58.8,55.0,27.46,ESE,116,0.0,0.0,87,0.00,,---,0.00,VWS V14.01,2013-10-12 05:06:00,
2013-10-12 01:11:00,58.5,54.9,27.46,ESE,116,0.0,0.0,88,0.00,,---,0.00,VWS V14.01,2013-10-12 05:11:00,
2013-10-12 01:16:00,58.5,54.9,27.49,ESE,116,0.0,0.0,88,0.00,,---,0.00,VWS V14.01,2013-10-12 05:16:00,
2013-10-12 01:21:00,58.3,55.1,27.49,ESE,116,3.1,3.1,89,0.00,,---,0.00,VWS V14.01,2013-10-12 05:21:00,
2013-10-12 01:26:00,58.3,55.1,27.49,NNW,330,0.0,2.7,89,0.00,,---,0.00,VWS V14.01,2013-10-12 05:26:00,
2013-10-12 01:31:00,58.1,55.2,27.46,NE,51,0.0,0.0,90,0.00,,---,0.00,VWS V14.01,2013-10-12 05:31:00,
2013-10-12 01:36:00,57.9,55.3,27.46,NE,51,0.0,0.0,91,0.00,,---,0.00,VWS V14.01,2013-10-12 05:36:00,
2013-10-12 01:41:00,57.9,55.3,27.46,NE,51,0.0,0.0,91,0.00,,---,0.00,VWS V14.01,2013-10-12 05:41:00,
2013-10-12 01:46:00,57.9,55.0,27.46,NE,51,0.0,0.0,90,0.00,,---,0.00,VWS V14.01,2013-10-12 05:46:00,
2013-10-12 01:51:00,58.1,55.2,27.46,ESE,110,2.7,2.7,90,0.00,,---,0.00,VWS V14.01,2013-10-12 05:51:00,
2013-10-12 01:56:00,58.1,55.2,27.46,ESE,110,2.2,2.7,90,0.00,,---,0.00,VWS V14.01,2013-10-12 05:56:00,
2013-10-12 02:01:00,57.9,55.0,27.49,ESE,110,0.0,2.7,90,0.00,,---,0.00,VWS V14.01,2013-10-12 06:01:00,
2013-10-12 02:06:00,58.1,54.9,27.49,South,171,0.0,0.0,89,0.00,,---,0.00,VWS V14.01,2013-10-12 06:06:00,
2013-10-12 02:11:00,57.9,54.7,27.49,South,171,2.2,2.7,89,0.00,,---,0.00,VWS V14.01,2013-10-12 06:11:00,
2013-10-12 02:16:00,57.9,55.0,27.49,South,171,0.0,0.0,90,0.00,,---,0.00,VWS V14.01,2013-10-12 06:16:00,
2013-10-12 02:21:00,58.1,55.2,27.49,South,171,0.0,0.0,90,0.00,,---,0.00,VWS V14.01,2013-10-12 06:21:00,
2013-10-12 02:26:00,57.9,55.0,27.49,South,171,0.0,0.0,90,0.00,,---,0.00,VWS V14.01,2013-10-12 06:26:00,
2013-10-12 02:31:00,58.1,54.9,27.49,South,171,0.0,0.0,89,0.00,,---,0.00,VWS V14.01,2013-10-12 06:31:00,
2013-10-12 02:36:00,57.9,54.7,27.49,South,171,0.0,0.0,89,0.00,,---,0.00,VWS V14.01,2013-10-12 06:36:00,
2013-10-12 02:41:00,57.9,54.7,27.49,SSE,152,0.0,0.0,89,0.00,,---,0.00,VWS V14.01,2013-10-12 06:41:00,
2013-10-12 02:46:00,57.7,54.8,27.46,SSE,152,0.0,0.0,90,0.00,,---,0.00,VWS V14.01,2013-10-12 06:46:00,
2013-10-12 02:51:00,57.7,54.8,27.46,SSE,152,0.0,0.0,90,0.00,,---,0.00,VWS V14.01,2013-10-12 06:51:00,
2013-10-12 02:56:00,57.9,55.0,27.46,SSE,151,0.0,0.0,90,0.00,,---,0.00,VWS V14.01,2013-10-12 06:56:00,
2013-10-12 03:01:00,58.1,54.9,27.46,SSE,151,0.0,0.0,89,0.00,,---,0.00,VWS V14.01,2013-10-12 07:01:00,
2013-10-12 03:06:00,57.9,54.4,27.46,SSE,151,0.0,0.0,88,0.00,,---,0.00,VWS V14.01,2013-10-12 07:06:00,
2013-10-12 03:11:00,57.9,54.4,27.46,SSE,151,0.0,0.0,88,0.00,,---,0.00,VWS V14.01,2013-10-12 07:11:00,
2013-10-12 03:16:00,57.9,54.4,27.46,SSE,151,0.0,0.0,88,0.00,,---,0.00,VWS V14.01,2013-10-12 07:16:00,
2013-10-12 03:21:00,57.7,54.2,27.46,SSE,151,0.0,0.0,88,0.00,,---,0.00,VWS V14.01,2013-10-12 07:21:00,
2013-10-12 03:26:00,57.9,54.4,27.46,SSE,151,0.0,0.0,88,0.00,,---,0.00,VWS V14.01,2013-10-12 07:26:00,
2013-10-12 03:31:00,57.9,54.1,27.46,SSE,151,0.0,0.0,87,0.00,,---,0.00,VWS V14.01,2013-10-12 07:31:00,
2013-10-12 03:36:00,57.9,54.1,27.46,SSE,151,0.0,0.0,87,0.00,,---,0.00,VWS V14.01,2013-10-12 07:36:00,
2013-10-12 03:41:00,57.9,53.8,27.46,SSE,151,0.0,0.0,86,0.00,,---,0.00,VWS V14.01,2013-10-12 07:41:00,
2013-10-12 03:46:00,57.7,53.6,27.49,SSE,151,0.0,0.0,86,0.00,,---,0.00,VWS V14.01,2013-10-12 07:46:00,
2013-10-12 03:51:00,57.7,53.9,27.49,SSE,151,0.0,0.0,87,0.00,,---,0.00,VWS V14.01,2013-10-12 07:51:00,
2013-10-12 03:56:00,57.7,53.9,27.49,SSE,151,0.0,0.0,87,0.00,,---,0.00,VWS V14.01,2013-10-12 07:56:00,
2013-10-12 04:01:00,57.6,54.0,27.46,SSE,151,0.0,0.0,88,0.00,,---,0.00,VWS V14.01,2013-10-12 08:01:00,
2013-10-12 04:06:00,57.6,54.0,27.46,SSE,151,0.0,0.0,88,0.00,,---,0.00,VWS V14.01,2013-10-12 08:06:00,
2013-10-12 04:11:00,57.6,54.3,27.46,NNE,13,0.0,2.2,89,0.00,,---,0.00,VWS V14.01,2013-10-12 08:11:00,
2013-10-12 04:16:00,57.6,54.3,27.46,NNE,20,0.0,0.0,89,0.00,,---,0.00,VWS V14.01,2013-10-12 08:16:00,
2013-10-12 04:21:00,57.7,54.5,27.46,WSW,237,0.0,2.2,89,0.00,,---,0.00,VWS V14.01,2013-10-12 08:21:00,
2013-10-12 04:26:00,58.1,54.6,27.46,West,269,2.2,2.7,88,0.00,,---,0.00,VWS V14.01,2013-10-12 08:26:00,
2013-10-12 04:31:00,58.1,54.3,27.46,WSW,237,0.0,2.2,87,0.00,,---,0.00,VWS V14.01,2013-10-12 08:31:00,
2013-10-12 04:36:00,58.3,54.1,27.46,WNW,282,0.0,0.0,86,0.00,,---,0.00,VWS V14.01,2013-10-12 08:36:00,
2013-10-12 04:41:00,58.3,54.1,27.46,ESE,120,0.0,0.0,86,0.00,,---,0.00,VWS V14.01,2013-10-12 08:41:00,
2013-10-12 04:46:00,58.1,54.3,27.49,ESE,120,0.0,2.7,87,0.00,,---,0.00,VWS V14.01,2013-10-12 08:46:00,
2013-10-12 04:51:00,57.9,54.4,27.49,ESE,120,0.0,0.0,88,0.00,,---,0.00,VWS V14.01,2013-10-12 08:51:00,
2013-10-12 04:56:00,57.4,54.2,27.49,ESE,120,0.0,0.0,89,0.00,,---,0.00,VWS V14.01,2013-10-12 08:56:00,
2013-10-12 05:01:00,57.0,54.1,27.49,West,263,0.0,2.7,90,0.00,,---,0.00,VWS V14.01,2013-10-12 09:01:00,
2013-10-12 05:06:00,56.7,54.1,27.49,West,263,0.0,0.0,91,0.00,,---,0.00,VWS V14.01,2013-10-12 09:06:00,
2013-10-12 05:11:00,56.3,54.0,27.49,West,263,0.0,0.0,92,0.00,,---,0.00,VWS V14.01,2013-10-12 09:11:00,
2013-10-12 05:16:00,55.9,54.0,27.49,West,263,0.0,0.0,93,0.00,,---,0.00,VWS V14.01,2013-10-12 09:16:00,
2013-10-12 05:21:00,55.6,53.9,27.49,West,263,0.0,0.0,94,0.00,,---,0.00,VWS V14.01,2013-10-12 09:21:00,
2013-10-12 05:26:00,55.2,53.8,27.49,West,263,0.0,0.0,95,0.00,,---,0.00,VWS V14.01,2013-10-12 09:26:00,
2013-10-12 05:31:00,55.2,54.1,27.49,West,263,0.0,0.0,96,0.00,,---,0.00,VWS V14.01,2013-10-12 09:31:00,
2013-10-12 05:36:00,55.0,53.9,27.49,West,263,0.0,0.0,96,0.00,,---,0.00,VWS V14.01,2013-10-12 09:36:00,
2013-10-12 05:41:00,54.9,54.0,27.49,West,263,0.0,0.0,97,0.00,,---,0.00,VWS V14.01,2013-10-12 09:41:00,
2013-10-12 05:46:00,54.7,53.8,27.49,West,263,0.0,0.0,97,0.00,,---,0.00,VWS V14.01,2013-10-12 09:46:00,
2013-10-12 05:51:00,54.5,54.0,27.49,West,263,0.0,0.0,98,0.00,,---,0.00,VWS V14.01,2013-10-12 09:51:00,
2013-10-12 05:56:00,54.3,53.8,27.49,West,263,0.0,0.0,98,0.00,,---,0.00,VWS V14.01,2013-10-12 09:56:00,
2013-10-12 06:01:00,54.1,53.6,27.49,West,263,0.0,0.0,98,0.00,,---,0.00,VWS V14.01,2013-10-12 10:01:00,
2013-10-12 06:06:00,54.0,53.4,27.49,West,263,0.0,0.0,98,0.00,,---,0.00,VWS V14.01,2013-10-12 10:06:00,
2013-10-12 06:11:00,53.8,53.2,27.49,West,263,0.0,0.0,98,0.00,,---,0.00,VWS V14.01,2013-10-12 10:11:00,
2013-10-12 06:16:00,53.6,53.0,27.49,West,263,0.0,0.0,98,0.00,,---,0.00,VWS V14.01,2013-10-12 10:16:00,
2013-10-12 06:21:00,53.4,52.9,27.49,West,263,0.0,0.0,98,0.00,,---,0.00,VWS V14.01,2013-10-12 10:21:00,
2013-10-12 06:26:00,53.2,52.7,27.49,West,263,0.0,0.0,98,0.00,,---,0.00,VWS V14.01,2013-10-12 10:26:00,
2013-10-12 06:31:00,53.2,52.7,27.49,West,263,0.0,0.0,98,0.00,,---,0.00,VWS V14.01,2013-10-12 10:31:00,
2013-10-12 06:36:00,53.1,52.5,27.49,West,263,0.0,0.0,98,0.00,,---,0.00,VWS V14.01,2013-10-12 10:36:00,
2013-10-12 06:41:00,53.1,52.5,27.49,West,263,0.0,0.0,98,0.00,,---,0.00,VWS V14.01,2013-10-12 10:41:00,
2013-10-12 06:46:00,53.1,52.5,27.52,West,263,0.0,0.0,98,0.00,,---,0.00,VWS V14.01,2013-10-12 10:46:00,
2013-10-12 06:51:00,53.1,52.5,27.52,West,263,0.0,0.0,98,0.00,,---,0.00,VWS V14.01,2013-10-12 10:51:00,
2013-10-12 06:56:00,53.2,52.7,27.52,West,263,0.0,0.0,98,0.00,,---,0.00,VWS V14.01,2013-10-12 10:56:00,
2013-10-12 07:01:00,53.2,52.7,27.52,West,263,0.0,0.0,98,0.00,,---,0.00,VWS V14.01,2013-10-12 11:01:00,
2013-10-12 07:06:00,53.2,52.7,27.52,West,263,0.0,0.0,98,0.00,,---,0.00,VWS V14.01,2013-10-12 11:06:00,
2013-10-12 07:11:00,53.2,52.7,27.52,West,263,0.0,0.0,98,0.00,,---,0.00,VWS V14.01,2013-10-12 11:11:00,
2013-10-12 07:16:00,53.4,52.9,27.52,West,263,0.0,0.0,98,0.00,,---,0.00,VWS V14.01,2013-10-12 11:16:00,
2013-10-12 07:21:00,53.8,53.2,27.52,West,263,0.0,0.0,98,0.00,,---,0.00,VWS V14.01,2013-10-12 11:21:00,
2013-10-12 07:26:00,54.1,53.6,27.52,West,263,0.0,0.0,98,0.00,,---,0.00,VWS V14.01,2013-10-12 11:26:00,
2013-10-12 07:31:00,54.3,53.8,27.52,West,263,0.0,0.0,98,0.00,,---,0.00,VWS V14.01,2013-10-12 11:31:00,
2013-10-12 07:36:00,54.5,54.0,27.52,West,263,0.0,0.0,98,0.00,,---,0.00,VWS V14.01,2013-10-12 11:36:00,
2013-10-12 07:41:00,54.5,54.0,27.52,West,263,0.0,0.0,98,0.00,,---,0.00,VWS V14.01,2013-10-12 11:41:00,
2013-10-12 07:46:00,54.7,54.1,27.52,West,263,0.0,0.0,98,0.00,,---,0.00,VWS V14.01,2013-10-12 11:46:00,
2013-10-12 07:51:00,54.7,54.1,27.52,West,263,0.0,0.0,98,0.00,,---,0.00,VWS V14.01,2013-10-12 11:51:00,
2013-10-12 07:56:00,54.9,54.3,27.52,West,263,0.0,0.0,98,0.00,,---,0.00,VWS V14.01,2013-10-12 11:56:00,
2013-10-12 08:01:00,55.2,54.7,27.52,West,263,0.0,0.0,98,0.00,,---,0.00,VWS V14.01,2013-10-12 12:01:00,
2013-10-12 08:06:00,55.6,55.0,27.52,West,263,0.0,0.0,98,0.00,,---,0.00,VWS V14.01,2013-10-12 12:06:00,
2013-10-12 08:11:00,55.9,55.4,27.52,West,263,0.0,0.0,98,0.00,,---,0.00,VWS V14.01,2013-10-12 12:11:00,
2013-10-12 08:16:00,56.1,55.6,27.52,West,263,0.0,0.0,98,0.00,,---,0.00,VWS V14.01,2013-10-12 12:16:00,
2013-10-12 08:21:00,56.3,55.8,27.52,West,263,0.0,0.0,98,0.00,,---,0.00,VWS V14.01,2013-10-12 12:21:00,
2013-10-12 08:26:00,56.7,56.1,27.52,West,263,0.0,0.0,98,0.00,,---,0.00,VWS V14.01,2013-10-12 12:26:00,
2013-10-12 08:31:00,56.8,56.3,27.52,WSW,255,0.0,0.0,98,0.00,,---,0.00,VWS V14.01,2013-10-12 12:31:00,
2013-10-12 08:36:00,57.2,56.6,27.52,WSW,255,0.0,0.0,98,0.00,,---,0.00,VWS V14.01,2013-10-12 12:36:00,
2013-10-12 08:41:00,57.6,57.0,27.52,WSW,255,0.0,0.0,98,0.00,,---,0.00,VWS V14.01,2013-10-12 12:41:00,
2013-10-12 08:46:00,57.9,57.4,27.52,WSW,255,0.0,0.0,98,0.00,,---,0.00,VWS V14.01,2013-10-12 12:46:00,
2013-10-12 08:51:00,58.3,57.7,27.52,WSW,256,0.0,0.0,98,0.00,,---,0.00,VWS V14.01,2013-10-12 12:51:00,
2013-10-12 08:56:00,58.6,58.1,27.52,WSW,255,0.0,0.0,98,0.00,,---,0.00,VWS V14.01,2013-10-12 12:56:00,
2013-10-12 09:01:00,58.8,58.3,27.52,WSW,255,0.0,0.0,98,0.00,,---,0.00,VWS V14.01,2013-10-12 13:01:00,
2013-10-12 09:06:00,59.2,58.6,27.52,WSW,255,0.0,0.0,98,0.00,,---,0.00,VWS V14.01,2013-10-12 13:06:00,
2013-10-12 09:11:00,59.4,58.8,27.52,West,268,0.0,0.0,98,0.00,,---,0.00,VWS V14.01,2013-10-12 13:11:00,
2013-10-12 09:16:00,59.5,59.0,27.55,West,281,0.0,0.0,98,0.00,,---,0.00,VWS V14.01,2013-10-12 13:16:00,
2013-10-12 09:21:00,59.9,59.3,27.55,WSW,245,0.0,0.0,98,0.00,,---,0.00,VWS V14.01,2013-10-12 13:21:00,
2013-10-12 09:26:00,60.4,59.9,27.55,WSW,243,0.0,0.0,98,0.00,,---,0.00,VWS V14.01,2013-10-12 13:26:00,
2013-10-12 09:31:00,60.6,60.1,27.55,ESE,108,2.7,2.7,98,0.00,,---,0.00,VWS V14.01,2013-10-12 13:31:00,
2013-10-12 09:36:00,60.8,60.2,27.55,ESE,108,0.0,0.0,98,0.00,,---,0.00,VWS V14.01,2013-10-12 13:36:00,
2013-10-12 09:41:00,61.2,60.3,27.55,ESE,108,0.0,0.0,97,0.00,,---,0.00,VWS V14.01,2013-10-12 13:41:00,
2013-10-12 09:46:00,61.3,59.9,27.55,ESE,108,0.0,0.0,95,0.00,,---,0.00,VWS V14.01,2013-10-12 13:46:00,
2013-10-12 09:51:00,61.5,59.8,27.55,ESE,108,0.0,0.0,94,0.00,,---,0.00,VWS V14.01,2013-10-12 13:51:00,
2013-10-12 09:56:00,61.7,59.4,27.55,ESE,104,3.1,3.1,92,0.00,,---,0.00,VWS V14.01,2013-10-12 13:56:00,
2013-10-12 10:01:00,61.9,59.2,27.55,ESE,104,0.0,0.0,91,0.00,,---,0.00,VWS V14.01,2013-10-12 14:01:00,
2013-10-12 10:06:00,62.2,59.6,27.55,ESE,104,0.0,0.0,91,0.00,,---,0.00,VWS V14.01,2013-10-12 14:06:00,
2013-10-12 10:11:00,62.6,59.3,27.55,East,101,0.0,0.0,89,0.00,,---,0.00,VWS V14.01,2013-10-12 14:11:00,
2013-10-12 10:16:00,63.0,59.0,27.55,East,101,0.0,0.0,87,0.00,,---,0.00,VWS V14.01,2013-10-12 14:16:00,
2013-10-12 10:21:00,63.3,59.4,27.55,East,101,0.0,2.2,87,0.00,,---,0.00,VWS V14.01,2013-10-12 14:21:00,
2013-10-12 10:26:00,63.9,59.3,27.55,East,101,0.0,0.0,85,0.00,,---,0.00,VWS V14.01,2013-10-12 14:26:00,
2013-10-12 10:31:00,64.4,59.1,27.55,East,96,2.7,2.7,83,0.00,,---,0.00,VWS V14.01,2013-10-12 14:31:00,
2013-10-12 10:36:00,64.8,59.5,27.55,East,96,2.7,2.7,83,0.00,,---,0.00,VWS V14.01,2013-10-12 14:36:00,
2013-10-12 10:41:00,65.1,59.5,27.55,East,96,0.0,0.0,82,0.00,,---,0.00,VWS V14.01,2013-10-12 14:41:00,
2013-10-12 10:46:00,65.7,60.0,27.55,East,96,0.0,0.0,82,0.00,,---,0.00,VWS V14.01,2013-10-12 14:46:00,
2013-10-12 10:51:00,66.0,60.0,27.55,East,96,0.0,0.0,81,0.00,,---,0.00,VWS V14.01,2013-10-12 14:51:00,
2013-10-12 10:56:00,66.4,60.0,27.55,East,99,0.0,0.0,80,0.00,,---,0.00,VWS V14.01,2013-10-12 14:56:00,
2013-10-12 11:01:00,66.7,59.7,27.55,East,99,0.0,0.0,78,0.00,,---,0.00,VWS V14.01,2013-10-12 15:01:00,
2013-10-12 11:06:00,67.1,59.7,27.55,East,101,0.0,0.0,77,0.00,,---,0.00,VWS V14.01,2013-10-12 15:06:00,
2013-10-12 11:11:00,67.5,58.9,27.55,East,91,3.1,3.1,74,0.00,,---,0.00,VWS V14.01,2013-10-12 15:11:00,
2013-10-12 11:16:00,67.5,57.3,27.55,SE,134,0.0,0.0,70,0.00,,---,0.00,VWS V14.01,2013-10-12 15:16:00,
2013-10-12 11:21:00,68.2,58.4,27.55,SE,134,2.2,2.2,71,0.00,,---,0.00,VWS V14.01,2013-10-12 15:21:00,
2013-10-12 11:26:00,68.4,58.2,27.55,SE,133,2.7,3.6,70,0.00,,---,0.00,VWS V14.01,2013-10-12 15:26:00,
2013-10-12 11:31:00,68.7,57.7,27.55,SE,133,0.0,2.2,68,0.00,,---,0.00,VWS V14.01,2013-10-12 15:31:00,
2013-10-12 11:36:00,68.7,57.7,27.55,SE,130,0.0,3.6,68,0.00,,---,0.00,VWS V14.01,2013-10-12 15:36:00,
2013-10-12 11:41:00,68.7,56.9,27.55,SE,132,3.1,3.1,66,0.00,,---,0.00,VWS V14.01,2013-10-12 15:41:00,
2013-10-12 11:46:00,69.1,57.3,27.52,SSE,152,3.1,3.1,66,0.00,,---,0.00,VWS V14.01,2013-10-12 15:46:00,
2013-10-12 11:51:00,69.6,56.9,27.52,East,83,3.1,3.1,64,0.00,,---,0.00,VWS V14.01,2013-10-12 15:51:00,
2013-10-12 11:56:00,70.0,56.8,27.52,NE,52,2.7,2.7,63,0.00,,---,0.00,VWS V14.01,2013-10-12 15:56:00,
2013-10-12 12:01:00,70.3,57.2,27.52,East,101,2.7,2.7,63,0.00,,---,0.00,VWS V14.01,2013-10-12 16:01:00,
2013-10-12 12:06:00,70.5,56.9,27.52,SSW,199,2.2,2.7,62,0.00,,---,0.00,VWS V14.01,2013-10-12 16:06:00,
2013-10-12 12:11:00,70.7,56.6,27.52,WSW,251,2.7,2.7,61,0.00,,---,0.00,VWS V14.01,2013-10-12 16:11:00,
2013-10-12 12:16:00,70.5,56.0,27.52,SE,135,4.9,4.9,60,0.00,,---,0.00,VWS V14.01,2013-10-12 16:16:00,
2013-10-12 12:21:00,71.2,57.1,27.52,NE,42,2.2,2.7,61,0.00,,---,0.00,VWS V14.01,2013-10-12 16:21:00,
2013-10-12 12:26:00,71.2,56.7,27.52,WNW,288,3.1,3.1,60,0.00,,---,0.00,VWS V14.01,2013-10-12 16:26:00,
2013-10-12 12:31:00,70.9,56.3,27.52,WSW,237,2.7,3.6,60,0.00,,---,0.00,VWS V14.01,2013-10-12 16:31:00,
2013-10-12 12:36:00,71.4,56.8,27.52,East,96,3.6,5.4,60,0.00,,---,0.00,VWS V14.01,2013-10-12 16:36:00,
2013-10-12 12:41:00,72.0,57.3,27.52,WSW,249,2.7,3.6,60,0.00,,---,0.00,VWS V14.01,2013-10-12 16:41:00,
2013-10-12 12:46:00,72.1,57.0,27.52,SSW,213,2.7,3.6,59,0.00,,---,0.00,VWS V14.01,2013-10-12 16:46:00,
2013-10-12 12:51:00,72.3,58.1,27.52,ESE,117,2.7,3.1,61,0.00,,---,0.00,VWS V14.01,2013-10-12 16:51:00,
2013-10-12 12:56:00,72.5,58.3,27.52,WSW,250,2.7,2.7,61,0.00,,---,0.00,VWS V14.01,2013-10-12 16:56:00,
2013-10-12 13:01:00,72.9,58.2,27.52,ESE,108,2.7,3.1,60,0.00,,---,0.00,VWS V14.01,2013-10-12 17:01:00,
2013-10-12 13:06:00,72.7,57.5,27.52,WSW,241,3.6,3.6,59,0.00,,---,0.00,VWS V14.01,2013-10-12 17:06:00,
2013-10-12 13:11:00,72.7,57.1,27.52,West,270,0.0,3.1,58,0.00,,---,0.00,VWS V14.01,2013-10-12 17:11:00,
2013-10-12 13:16:00,72.5,57.8,27.52,SE,143,2.2,2.2,60,0.00,,---,0.00,VWS V14.01,2013-10-12 17:16:00,
2013-10-12 13:21:00,72.7,58.9,27.52,SE,134,2.2,2.7,62,0.00,,---,0.00,VWS V14.01,2013-10-12 17:21:00,
2013-10-12 13:26:00,72.9,59.1,27.52,ESE,110,3.6,4.0,62,0.00,,---,0.00,VWS V14.01,2013-10-12 17:26:00,
2013-10-12 13:31:00,72.9,58.6,27.52,NNE,20,2.7,2.7,61,0.00,,---,0.00,VWS V14.01,2013-10-12 17:31:00,
2013-10-12 13:36:00,72.9,58.6,27.52,NNE,25,0.0,0.0,61,0.00,,---,0.00,VWS V14.01,2013-10-12 17:36:00,
2013-10-12 13:41:00,72.7,58.9,27.52,SE,132,4.0,4.0,62,0.00,,---,0.00,VWS V14.01,2013-10-12 17:41:00,
2013-10-12 13:46:00,72.7,58.9,27.52,SSE,166,2.7,2.7,62,0.00,,---,0.00,VWS V14.01,2013-10-12 17:46:00,
2013-10-12 13:51:00,73.4,60.0,27.52,ENE,57,3.1,3.1,63,0.00,,---,0.00,VWS V14.01,2013-10-12 17:51:00,
2013-10-12 13:56:00,73.6,59.8,27.52,ENE,57,2.2,2.7,62,0.00,,---,0.00,VWS V14.01,2013-10-12 17:56:00,
2013-10-12 14:01:00,73.8,59.9,27.52,ENE,57,2.2,2.7,62,0.00,,---,0.00,VWS V14.01,2013-10-12 18:01:00,
2013-10-12 14:06:00,73.6,59.8,27.52,ENE,58,3.1,4.0,62,0.00,,---,0.00,VWS V14.01,2013-10-12 18:06:00,
2013-10-12 14:11:00,73.4,60.0,27.52,ENE,58,2.2,2.7,63,0.00,,---,0.00,VWS V14.01,2013-10-12 18:11:00,
2013-10-12 14:16:00,73.4,60.0,27.52,ENE,58,2.7,2.7,63,0.00,,---,0.00,VWS V14.01,2013-10-12 18:16:00,
2013-10-12 14:21:00,74.1,58.9,27.52,SE,133,5.4,5.4,59,0.00,,---,0.00,VWS V14.01,2013-10-12 18:21:00,
2013-10-12 14:26:00,74.1,58.9,27.52,SE,143,0.0,2.7,59,0.00,,---,0.00,VWS V14.01,2013-10-12 18:26:00,
2013-10-12 14:31:00,74.3,59.1,27.52,WSW,239,0.0,0.0,59,0.00,,---,0.00,VWS V14.01,2013-10-12 18:31:00,
2013-10-12 14:36:00,74.5,59.7,27.52,WSW,239,2.7,2.7,60,0.00,,---,0.00,VWS V14.01,2013-10-12 18:36:00,
2013-10-12 14:41:00,74.5,59.7,27.52,WSW,247,2.2,3.6,60,0.00,,---,0.00,VWS V14.01,2013-10-12 18:41:00,
2013-10-12 14:46:00,75.0,58.8,27.52,SSW,192,0.0,5.4,57,0.00,,---,0.00,VWS V14.01,2013-10-12 18:46:00,
2013-10-12 14:51:00,75.2,59.4,27.52,South,185,2.2,3.1,58,0.00,,---,0.00,VWS V14.01,2013-10-12 18:51:00,
2013-10-12 14:56:00,74.5,58.3,27.52,South,185,0.0,3.6,57,0.00,,---,0.00,VWS V14.01,2013-10-12 18:56:00,
2013-10-12 15:01:00,74.1,58.9,27.52,South,185,0.0,0.0,59,0.00,,---,0.00,VWS V14.01,2013-10-12 19:01:00,
2013-10-12 15:06:00,74.3,59.5,27.52,South,185,0.0,0.0,60,0.00,,---,0.00,VWS V14.01,2013-10-12 19:06:00,
2013-10-12 15:10:00,74.5,60.2,27.52,SSE,149,2.2,4.0,61,0.00,,---,0.00,VWS V14.01,2013-10-12 19:10:00,
2013-10-12 15:15:00,73.8,59.5,27.52,SSE,154,3.1,4.0,61,0.00,,---,0.00,VWS V14.01,2013-10-12 19:15:00,
2013-10-12 15:20:00,73.8,59.0,27.52,NW,304,0.0,0.0,60,0.00,,---,0.00,VWS V14.01,2013-10-12 19:20:00,
2013-10-12 15:25:00,73.6,59.3,27.52,West,265,3.1,3.1,61,0.00,,---,0.00,VWS V14.01,2013-10-12 19:25:00,
2013-10-12 15:30:00,73.4,59.6,27.52,SW,227,2.2,2.7,62,0.00,,---,0.00,VWS V14.01,2013-10-12 19:30:00,
2013-10-12 15:35:00,73.4,59.6,27.52,SSE,160,0.0,2.2,62,0.00,,---,0.00,VWS V14.01,2013-10-12 19:35:00,
2013-10-12 15:40:00,73.0,58.8,27.52,SE,142,0.0,0.0,61,0.00,,---,0.00,VWS V14.01,2013-10-12 19:40:00,
2013-10-12 15:45:00,72.7,58.9,27.52,SE,142,0.0,0.0,62,0.00,,---,0.00,VWS V14.01,2013-10-12 19:45:00,
2013-10-12 15:50:00,72.3,59.5,27.52,SE,142,0.0,0.0,64,0.00,,---,0.00,VWS V14.01,2013-10-12 19:50:00,
2013-10-12 15:55:00,72.0,59.6,27.52,SE,142,0.0,0.0,65,0.00,,---,0.00,VWS V14.01,2013-10-12 19:55:00,
2013-10-12 16:00:00,71.6,59.7,27.52,SE,142,0.0,0.0,66,0.00,,---,0.00,VWS V14.01,2013-10-12 20:00:00,
2013-10-12 16:05:00,71.4,59.9,27.52,SE,142,0.0,0.0,67,0.00,,---,0.00,VWS V14.01,2013-10-12 20:05:00,
2013-10-12 16:10:00,71.1,59.1,27.52,SE,125,0.0,2.2,66,0.00,,---,0.00,VWS V14.01,2013-10-12 20:10:00,
2013-10-12 16:15:00,70.9,59.0,27.52,SE,125,0.0,0.0,66,0.00,,---,0.00,VWS V14.01,2013-10-12 20:15:00,
2013-10-12 16:20:00,70.5,58.6,27.52,SW,229,0.0,2.2,66,0.00,,---,0.00,VWS V14.01,2013-10-12 20:20:00,
2013-10-12 16:25:00,70.3,58.5,27.52,SW,233,0.0,0.0,66,0.00,,---,0.00,VWS V14.01,2013-10-12 20:25:00,
2013-10-12 16:30:00,70.2,58.3,27.52,ESE,102,2.2,2.7,66,0.00,,---,0.00,VWS V14.01,2013-10-12 20:30:00,
2013-10-12 16:35:00,70.0,58.1,27.52,ENE,73,0.0,0.0,66,0.00,,---,0.00,VWS V14.01,2013-10-12 20:35:00,
2013-10-12 16:40:00,69.6,58.6,27.52,SE,132,0.0,0.0,68,0.00,,---,0.00,VWS V14.01,2013-10-12 20:40:00,
2013-10-12 16:45:00,69.4,58.4,27.52,SE,132,0.0,0.0,68,0.00,,---,0.00,VWS V14.01,2013-10-12 20:45:00,
2013-10-12 16:50:00,69.1,58.9,27.52,SE,132,0.0,0.0,70,0.00,,---,0.00,VWS V14.01,2013-10-12 20:50:00,
2013-10-12 16:55:00,68.9,59.1,27.52,SE,132,0.0,0.0,71,0.00,,---,0.00,VWS V14.01,2013-10-12 20:55:00,
2013-10-12 17:00:00,68.7,59.0,27.52,NNW,343,0.0,2.2,71,0.00,,---,0.00,VWS V14.01,2013-10-12 21:00:00,
2013-10-12 17:05:00,68.5,59.2,27.52,NNW,343,0.0,0.0,72,0.00,,---,0.00,VWS V14.01,2013-10-12 21:05:00,
2013-10-12 17:10:00,68.5,59.2,27.52,NNW,343,0.0,0.0,72,0.00,,---,0.00,VWS V14.01,2013-10-12 21:10:00,
2013-10-12 17:15:00,68.4,59.4,27.52,West,268,0.0,0.0,73,0.00,,---,0.00,VWS V14.01,2013-10-12 21:15:00,
2013-10-12 17:20:00,68.2,58.8,27.52,East,96,2.7,3.6,72,0.00,,---,0.00,VWS V14.01,2013-10-12 21:20:00,
2013-10-12 17:25:00,68.2,58.8,27.52,East,93,2.7,2.7,72,0.00,,---,0.00,VWS V14.01,2013-10-12 21:25:00,
2013-10-12 17:30:00,68.0,58.7,27.52,East,93,0.0,0.0,72,0.00,,---,0.00,VWS V14.01,2013-10-12 21:30:00,
2013-10-12 17:35:00,68.0,58.7,27.52,East,93,0.0,0.0,72,0.00,,---,0.00,VWS V14.01,2013-10-12 21:35:00,
2013-10-12 17:40:00,68.0,59.0,27.52,East,93,0.0,2.2,73,0.00,,---,0.00,VWS V14.01,2013-10-12 21:40:00,
2013-10-12 17:45:00,68.0,59.0,27.52,East,93,0.0,0.0,73,0.00,,---,0.00,VWS V14.01,2013-10-12 21:45:00,
2013-10-12 17:50:00,68.0,59.4,27.52,East,93,0.0,0.0,74,0.00,,---,0.00,VWS V14.01,2013-10-12 21:50:00,
2013-10-12 17:55:00,68.0,59.0,27.52,North,3,2.2,2.7,73,0.00,,---,0.00,VWS V14.01,2013-10-12 21:55:00,
2013-10-12 18:00:00,67.8,59.2,27.55,North,3,0.0,0.0,74,0.00,,---,0.00,VWS V14.01,2013-10-12 22:00:00,
2013-10-12 18:05:00,67.8,58.9,27.55,North,3,0.0,0.0,73,0.00,,---,0.00,VWS V14.01,2013-10-12 22:05:00,
2013-10-12 18:10:00,67.5,58.1,27.55,North,3,0.0,0.0,72,0.00,,---,0.00,VWS V14.01,2013-10-12 22:10:00,
2013-10-12 18:15:00,67.5,58.1,27.55,North,3,0.0,0.0,72,0.00,,---,0.00,VWS V14.01,2013-10-12 22:15:00,
2013-10-12 18:20:00,67.1,58.2,27.55,North,3,0.0,0.0,73,0.00,,---,0.00,VWS V14.01,2013-10-12 22:20:00,
2013-10-12 18:25:00,66.9,58.4,27.55,North,3,0.0,0.0,74,0.00,,---,0.00,VWS V14.01,2013-10-12 22:25:00,
2013-10-12 18:30:00,66.7,58.6,27.55,North,3,0.0,0.0,75,0.00,,---,0.00,VWS V14.01,2013-10-12 22:30:00,
2013-10-12 18:35:00,66.6,58.8,27.55,North,3,0.0,0.0,76,0.00,,---,0.00,VWS V14.01,2013-10-12 22:35:00,
2013-10-12 18:40:00,66.4,59.0,27.55,North,3,0.0,0.0,77,0.00,,---,0.00,VWS V14.01,2013-10-12 22:40:00,
2013-10-12 18:45:00,66.2,58.8,27.55,North,3,0.0,0.0,77,0.00,,---,0.00,VWS V14.01,2013-10-12 22:45:00,
2013-10-12 18:50:00,66.0,58.6,27.55,North,6,0.0,0.0,77,0.00,,---,0.00,VWS V14.01,2013-10-12 22:50:00,
2013-10-12 18:55:00,65.8,59.2,27.55,North,6,0.0,0.0,79,0.00,,---,0.00,VWS V14.01,2013-10-12 22:55:00,
2013-10-12 19:00:00,65.7,59.0,27.55,North,6,0.0,0.0,79,0.00,,---,0.00,VWS V14.01,2013-10-12 23:00:00,
2013-10-12 19:05:00,65.5,59.2,27.55,North,6,0.0,0.0,80,0.00,,---,0.00,VWS V14.01,2013-10-12 23:05:00,
2013-10-12 19:10:00,65.5,59.5,27.55,North,6,0.0,2.2,81,0.00,,---,0.00,VWS V14.01,2013-10-12 23:10:00,
2013-10-12 19:15:00,65.1,59.5,27.55,North,6,0.0,0.0,82,0.00,,---,0.00,VWS V14.01,2013-10-12 23:15:00,
2013-10-12 19:20:00,65.1,59.8,27.55,North,6,0.0,0.0,83,0.00,,---,0.00,VWS V14.01,2013-10-12 23:20:00,
2013-10-12 19:25:00,64.9,60.0,27.55,North,6,0.0,0.0,84,0.00,,---,0.00,VWS V14.01,2013-10-12 23:25:00,
2013-10-12 19:30:00,64.8,59.8,27.55,North,6,0.0,0.0,84,0.00,,---,0.00,VWS V14.01,2013-10-12 23:30:00,
2013-10-12 19:35:00,64.8,60.2,27.55,North,6,0.0,0.0,85,0.00,,---,0.00,VWS V14.01,2013-10-12 23:35:00,
2013-10-12 19:40:00,64.6,60.0,27.55,North,6,0.0,0.0,85,0.00,,---,0.00,VWS V14.01,2013-10-12 23:40:00,
2013-10-12 19:45:00,64.4,59.8,27.55,North,6,0.0,0.0,85,0.00,,---,0.00,VWS V14.01,2013-10-12 23:45:00,
2013-10-12 19:50:00,64.4,60.1,27.55,North,6,0.0,0.0,86,0.00,,---,0.00,VWS V14.01,2013-10-12 23:50:00,
2013-10-12 19:55:00,64.4,60.1,27.55,North,6,0.0,0.0,86,0.00,,---,0.00,VWS V14.01,2013-10-12 23:55:00,
2013-10-12 20:00:00,64.4,59.8,27.55,North,6,0.0,0.0,85,0.00,,---,0.00,VWS V14.01,2013-10-13 00:00:00,
2013-10-12 20:05:00,64.2,60.0,27.55,North,6,0.0,0.0,86,0.00,,---,0.00,VWS V14.01,2013-10-13 00:05:00,
2013-10-12 20:10:00,64.2,59.6,27.55,North,6,0.0,0.0,85,0.00,,---,0.00,VWS V14.01,2013-10-13 00:10:00,
2013-10-12 20:15:00,64.2,60.0,27.55,North,6,0.0,0.0,86,0.00,,---,0.00,VWS V14.01,2013-10-13 00:15:00,
2013-10-12 20:20:00,64.2,60.3,27.55,North,6,0.0,0.0,87,0.00,,---,0.00,VWS V14.01,2013-10-13 00:20:00,
2013-10-12 20:25:00,64.0,60.4,27.55,North,6,0.0,0.0,88,0.00,,---,0.00,VWS V14.01,2013-10-13 00:25:00,
2013-10-12 20:30:00,63.9,60.2,27.55,North,6,0.0,0.0,88,0.00,,---,0.00,VWS V14.01,2013-10-13 00:30:00,
2013-10-12 20:35:00,63.9,60.2,27.55,North,6,0.0,0.0,88,0.00,,---,0.00,VWS V14.01,2013-10-13 00:35:00,
2013-10-12 20:40:00,63.9,60.2,27.55,North,6,0.0,0.0,88,0.00,,---,0.00,VWS V14.01,2013-10-13 00:40:00,
2013-10-12 20:45:00,63.7,60.4,27.55,North,6,0.0,0.0,89,0.00,,---,0.00,VWS V14.01,2013-10-13 00:45:00,
2013-10-12 20:50:00,63.7,60.7,27.55,North,6,0.0,0.0,90,0.00,,---,0.00,VWS V14.01,2013-10-13 00:50:00,
2013-10-12 20:55:00,63.5,60.5,27.55,North,6,0.0,0.0,90,0.00,,---,0.00,VWS V14.01,2013-10-13 00:55:00,
2013-10-12 21:00:00,63.5,60.5,27.55,North,6,0.0,0.0,90,0.00,,---,0.00,VWS V14.01,2013-10-13 01:00:00,
2013-10-12 21:05:00,63.5,60.8,27.55,North,6,0.0,0.0,91,0.00,,---,0.00,VWS V14.01,2013-10-13 01:05:00,
2013-10-12 21:10:00,63.5,60.8,27.55,North,6,0.0,0.0,91,0.00,,---,0.00,VWS V14.01,2013-10-13 01:10:00,
2013-10-12 21:15:00,63.3,60.7,27.55,North,6,0.0,0.0,91,0.00,,---,0.00,VWS V14.01,2013-10-13 01:15:00,
2013-10-12 21:20:00,63.3,60.7,27.55,North,6,0.0,0.0,91,0.00,,---,0.00,VWS V14.01,2013-10-13 01:20:00,
2013-10-12 21:25:00,63.1,60.5,27.55,North,6,0.0,0.0,91,0.00,,---,0.00,VWS V14.01,2013-10-13 01:25:00,
2013-10-12 21:30:00,63.1,60.5,27.55,North,6,0.0,0.0,91,0.00,,---,0.00,VWS V14.01,2013-10-13 01:30:00,
2013-10-12 21:35:00,63.1,60.5,27.55,North,6,0.0,0.0,91,0.00,,---,0.00,VWS V14.01,2013-10-13 01:35:00,
2013-10-12 21:40:00,63.1,60.5,27.55,North,6,0.0,0.0,91,0.00,,---,0.00,VWS V14.01,2013-10-13 01:40:00,
2013-10-12 21:45:00,63.0,60.3,27.55,North,6,0.0,0.0,91,0.00,,---,0.00,VWS V14.01,2013-10-13 01:45:00,
2013-10-12 21:50:00,63.0,60.3,27.55,North,6,0.0,0.0,91,0.00,,---,0.00,VWS V14.01,2013-10-13 01:50:00,
2013-10-12 21:55:00,62.8,60.4,27.55,North,6,0.0,0.0,92,0.00,,---,0.00,VWS V14.01,2013-10-13 01:55:00,
2013-10-12 21:57:00,62.8,60.4,27.55,North,6,0.0,0.0,92,0.00,,---,0.00,VWS V14.01,2013-10-13 01:57:00,
2013-10-12 22:02:00,62.2,60.2,27.55,North,6,0.0,0.0,93,0.00,,---,0.00,VWS V14.01,2013-10-13 02:02:00,
2013-10-12 22:07:00,62.1,60.0,27.55,North,6,0.0,0.0,93,0.00,,---,0.00,VWS V14.01,2013-10-13 02:07:00,
2013-10-12 22:12:00,61.7,59.7,27.55,North,6,0.0,0.0,93,0.00,,---,0.00,VWS V14.01,2013-10-13 02:12:00,
2013-10-12 22:17:00,61.3,59.3,27.55,North,6,0.0,0.0,93,0.00,,---,0.00,VWS V14.01,2013-10-13 02:17:00,
2013-10-12 22:22:00,61.2,59.4,27.55,North,6,0.0,0.0,94,0.00,,---,0.00,VWS V14.01,2013-10-13 02:22:00,
2013-10-12 22:27:00,61.0,59.2,27.55,North,6,0.0,0.0,94,0.00,,---,0.00,VWS V14.01,2013-10-13 02:27:00,
2013-10-12 22:32:00,61.0,59.5,27.55,North,6,0.0,0.0,95,0.00,,---,0.00,VWS V14.01,2013-10-13 02:32:00,
2013-10-12 22:37:00,61.0,59.5,27.55,North,6,0.0,0.0,95,0.00,,---,0.00,VWS V14.01,2013-10-13 02:37:00,
2013-10-12 22:42:00,61.0,59.5,27.55,North,6,0.0,0.0,95,0.00,,---,0.00,VWS V14.01,2013-10-13 02:42:00,
2013-10-12 22:47:00,61.0,59.5,27.55,North,6,0.0,0.0,95,0.00,,---,0.00,VWS V14.01,2013-10-13 02:47:00,
2013-10-12 22:52:00,60.8,59.4,27.55,North,6,0.0,0.0,95,0.00,,---,0.00,VWS V14.01,2013-10-13 02:52:00,
2013-10-12 22:57:00,60.6,59.5,27.55,North,6,0.0,0.0,96,0.00,,---,0.00,VWS V14.01,2013-10-13 02:57:00,
2013-10-12 23:02:00,60.6,59.5,27.58,North,6,0.0,0.0,96,0.00,,---,0.00,VWS V14.01,2013-10-13 03:02:00,
2013-10-12 23:07:00,60.4,59.3,27.58,North,6,0.0,0.0,96,0.00,,---,0.00,VWS V14.01,2013-10-13 03:07:00,
2013-10-12 23:12:00,60.4,59.3,27.58,North,6,0.0,0.0,96,0.00,,---,0.00,VWS V14.01,2013-10-13 03:12:00,
2013-10-12 23:17:00,60.3,59.4,27.58,North,6,0.0,0.0,97,0.00,,---,0.00,VWS V14.01,2013-10-13 03:17:00,
2013-10-12 23:22:00,60.1,59.2,27.58,North,6,0.0,0.0,97,0.00,,---,0.00,VWS V14.01,2013-10-13 03:22:00,
2013-10-12 23:27:00,60.1,59.2,27.58,North,6,0.0,0.0,97,0.00,,---,0.00,VWS V14.01,2013-10-13 03:27:00,
2013-10-12 23:32:00,60.1,59.2,27.58,North,6,0.0,0.0,97,0.00,,---,0.00,VWS V14.01,2013-10-13 03:32:00,
2013-10-12 23:37:00,59.9,59.3,27.58,North,6,0.0,0.0,98,0.00,,---,0.00,VWS V14.01,2013-10-13 03:37:00,
2013-10-12 23:42:00,59.7,59.2,27.58,North,6,0.0,0.0,98,0.00,,---,0.00,VWS V14.01,2013-10-13 03:42:00,
2013-10-12 23:47:00,59.7,59.2,27.58,North,6,0.0,0.0,98,0.00,,---,0.00,VWS V14.01,2013-10-13 03:47:00,
2013-10-12 23:52:00,59.9,59.3,27.58,North,6,0.0,0.0,98,0.00,,---,0.00,VWS V14.01,2013-10-13 03:52:00,
2013-10-12 23:57:00,60.1,59.5,27.58,North,6,0.0,0.0,98,0.00,,---,0.00,VWS V14.01,2013-10-13 03:57:00,